Etusivu
METAR-TAF:

METAR-TAF

Lentoasemat :

Brooks Field

Marshall, Michigan, Yhdysvallat

Leveyspiiri: 42-15-04N, Pituuspiiri: 084-57-20W, korkeus merenpinnasta: 287 m

Tämänhetkinen sää

Tämä raportti tehtiin 20 minuuttia sitten, kello 11.15 UTC
Tuuli 6 kn etelästä/kaakosta
Lämpötila 6°C
Kosteus 81%
Ilmanpaine 1016 hPa
Näkyvyys: 11.3 km
Hajonneita pilviä 11000 ft:n korkeudessa

METAR: KRMY 211115Z AUTO 15006KT 7SM BKN110 06/03 A3000 RMK AO2 T00570030

Aika: 06:35 (11:35 UTC)


TAF: puuttuu

Säähavainnot ja -ennusteet yli 4000 lentoasemalta (METAR- ja TAF-raportit).

Käytössä olevat sääasemat on merkitty karttaan keltaisilla ja punaisilla pisteillä.

Aseta hiiri pisteen päälle nähdäksesi sääaseman nimen.

Klikkaa sitten nähdäksesi säähavainnot ja -ennusteet.

Kartan vaihtaminen: klikkaa mustalla rastilla varustettuja vihreitä pisteitä, niin voit zoomata sisään; viivalla varustettua vihreää pistettä, niin voit zoomata ulos tai vihreitä nuolia, niin pääset viereisille kartoille.


METAR-TAF: